Hub


Voltar

 INFORMAÇÕES METEOROLÓGICAS

METAR FOR EDDB


ADDS - METARS form results

(2045 UTC 16 February 2019)
Data provider http://aviationweather.gov/metar/data/
 
METAR text: EDDB 162020Z 24005KT CAVOK 04/M01 Q1024 NOSIG
Conditions at: EDDB (BERLIN/SCHONEFEL, DE) observed 2020 UTC 16 February 2019
Temperature: 4.0°C (39°F)
Dewpoint: -1.0°C (30°F) [RH = 70%]
Pressure (altimeter): 30.24 inches Hg (1024.0 mb)
Winds: from the WSW (240 degrees) at 6 MPH (5 knots; 2.6 m/s)
Visibility: 6 or more miles (10+ km)
Ceiling: ceiling and visibility are OK
Clouds: unknown
Weather: no significant weather observed at this time

METAR text: EDDB 161950Z 24005KT CAVOK 05/M02 Q1024 NOSIG
Conditions at: EDDB (BERLIN/SCHONEFEL, DE) observed 1950 UTC 16 February 2019
Temperature: 5.0°C (41°F)
Dewpoint: -2.0°C (28°F) [RH = 60%]
Pressure (altimeter): 30.24 inches Hg (1024.0 mb)
Winds: from the WSW (240 degrees) at 6 MPH (5 knots; 2.6 m/s)
Visibility: 6 or more miles (10+ km)
Ceiling: ceiling and visibility are OK
Clouds: unknown
Weather: no significant weather observed at this time

Forecast for: EDDB (BERLIN/SCHONEFEL, DE)
Text: TAF EDDB 161700Z 1618/1718 22005KT CAVOK
Forecast period: 1800 UTC 16 February 2019 to 1100 UTC 17 February 2019
Forecast type: FROM: standard forecast or significant change
Winds: from the SW (220 degrees) at 6 MPH (5 knots; 2.6 m/s)
Visibility: 6 or more miles 10+ km)
Ceiling: unknown
Clouds: missing
Weather: NSW  (no significant weather)
Text: BECMG 1711/1713 16004KT
Forecast period: 1100 to 1800 UTC 17 February 2019
Forecast type: BECOMING: Conditions expected to become as follows by 1300 UTC 17 February 2019
Winds: from the SSE (160 degrees) at 5 MPH (4 knots; 2.1 m/s)
Visibility: 6 or more miles 10+ km)
Ceiling: unknown
Clouds: missing
Weather: NSW  (no significant weather)


 MAPA DO AEROPORTO


 INFORMAÇÕES DA PISTA

Pista 07L Tamanho da pista 8891 ft Largura da pista 148 ft
Elevação da pista 148 ft Ranhura da pista 0 ft Proa da pista 69
Pista 25R Tamanho da pista 8891 ft Largura da pista 148 ft
Elevação da pista 145 ft Ranhura da pista 0 ft Proa da pista 249
Pista 07R Tamanho da pista 9843 ft Largura da pista 148 ft
Elevação da pista 146 ft Ranhura da pista 0 ft Proa da pista 69
Pista 25L Tamanho da pista 9843 ft Largura da pista 148 ft
Elevação da pista 155 ft Ranhura da pista 0 ft Proa da pista 249

 FREQUÊNCIAS DO AEROPORTO

Tipo AFIS Nome BERLIN INF Frequência 132.65 MHZ
Tipo APP Nome BERLIN ARR Frequência 119.625 MHZ
Tipo ATIS Nome ATIS Frequência 124.95 MHZ
Tipo DEP Nome BERLIN DEP Frequência 120.625 MHZ
Tipo DIR Nome BERLIN DIR Frequência 136.1 MHZ
Tipo GND Nome GND Frequência 121.6 MHZ
Tipo INFO Nome INFO Frequência 122.7 MHZ
Tipo TWR Nome TWR Frequência 120.025 MHZ

 AUXÍLIOS DE NAVEGAÇÃO PRÓXIMOS AO AEROPORTO

Tipo DME Nome Schonefeld Frequência 114400 KHZ
Tipo NDB Nome Schonefeld Frequência 362 KHZ